createdAt,value
2018-01-01T00:01:22.027Z,65.10
2018-01-01T00:03:53.882Z,64.80
2018-01-01T00:06:25.783Z,64.70
2018-01-01T00:08:55.884Z,64.80
2018-01-01T00:11:27.622Z,64.40
2018-01-01T00:13:56.173Z,65.70
2018-01-01T00:16:25.225Z,65.50
2018-01-01T00:21:28.214Z,65.20
2018-01-01T00:24:01.770Z,65.70
2018-01-01T00:26:34.009Z,64.70
2018-01-01T00:29:03.414Z,64.90
2018-01-01T00:31:35.069Z,64.90
2018-01-01T00:34:30.968Z,65.10
2018-01-01T00:40:08.464Z,63.60
2018-01-01T00:45:24.271Z,64.10
2018-01-01T00:47:55.765Z,64.40
2018-01-01T00:50:24.483Z,64.80
2018-01-01T00:52:52.598Z,65.30
2018-01-01T00:55:23.520Z,65.10
2018-01-01T00:57:52.831Z,65.40
2018-01-01T01:00:21.584Z,65.80
2018-01-01T01:02:49.271Z,65.90
2018-01-01T01:05:21.241Z,65.20
2018-01-01T01:07:52.241Z,65.40
2018-01-01T01:10:23.050Z,65.50
2018-01-01T01:12:54.019Z,65.40
2018-01-01T01:15:23.187Z,64.80
2018-01-01T01:17:55.521Z,66.90
2018-01-01T01:20:27.140Z,66.70
2018-01-01T01:22:55.001Z,65.20
2018-01-01T01:25:22.653Z,65.00
2018-01-01T01:27:51.403Z,65.50
2018-01-01T01:30:20.570Z,65.00
2018-01-01T01:32:50.712Z,65.00
2018-01-01T01:35:18.733Z,64.90
2018-01-01T01:37:47.269Z,65.20
2018-01-01T01:40:15.037Z,64.40
2018-01-01T01:42:42.741Z,64.20
2018-01-01T01:45:11.697Z,63.40
2018-01-01T01:47:39.280Z,63.40
2018-01-01T01:50:06.991Z,63.10
2018-01-01T01:52:37.208Z,63.20
2018-01-01T01:55:05.180Z,63.60
2018-01-01T01:57:32.850Z,64.00
2018-01-01T02:00:03.719Z,64.40
2018-01-01T02:02:33.623Z,64.80
2018-01-01T02:05:03.433Z,64.80
2018-01-01T02:07:31.489Z,65.40
2018-01-01T02:10:00.013Z,65.50
2018-01-01T02:12:28.819Z,65.80
2018-01-01T02:14:58.053Z,65.60
2018-01-01T02:17:27.325Z,65.40
2018-01-01T02:19:56.128Z,66.00
2018-01-01T02:22:27.868Z,65.30
2018-01-01T02:24:55.672Z,65.40
2018-01-01T02:27:23.581Z,65.30
2018-01-01T02:29:51.214Z,65.10
2018-01-01T02:32:31.493Z,65.50
2018-01-01T02:34:59.795Z,65.60
2018-01-01T02:37:30.483Z,65.00
2018-01-01T02:39:58.841Z,66.90
2018-01-01T02:42:26.476Z,67.90
2018-01-01T02:44:54.108Z,68.30
2018-01-01T02:47:22.842Z,67.50
2018-01-01T02:49:51.120Z,67.30
2018-01-01T02:52:19.140Z,67.00
2018-01-01T02:54:47.737Z,68.00
2018-01-01T02:57:15.914Z,66.70
2018-01-01T02:59:44.169Z,66.10
2018-01-01T03:02:12.735Z,67.00
2018-01-01T03:04:40.888Z,69.30
2018-01-01T03:07:10.475Z,72.60
2018-01-01T03:09:39.603Z,72.60
2018-01-01T03:12:09.636Z,72.10
2018-01-01T03:14:37.902Z,70.00
2018-01-01T03:17:06.461Z,68.40
2018-01-01T03:19:35.082Z,68.00
2018-01-01T03:22:03.950Z,65.90
2018-01-01T03:24:32.809Z,65.20
2018-01-01T03:27:00.842Z,63.50
2018-01-01T03:29:29.543Z,79.10
2018-01-01T03:31:57.853Z,63.10
2018-01-01T03:34:25.935Z,62.90
2018-01-01T03:36:54.317Z,63.80
2018-01-01T03:39:22.262Z,62.70
2018-01-01T03:41:50.019Z,62.80
2018-01-01T03:44:18.432Z,64.10
2018-01-01T03:46:47.801Z,63.20
2018-01-01T03:49:16.320Z,62.10
2018-01-01T03:51:45.053Z,62.30
2018-01-01T03:54:14.160Z,61.90
2018-01-01T03:56:41.817Z,61.80
2018-01-01T03:59:12.499Z,61.50
2018-01-01T04:01:41.500Z,61.10
2018-01-01T04:04:12.313Z,61.80
2018-01-01T04:06:39.978Z,61.40
2018-01-01T04:09:07.747Z,61.90
2018-01-01T04:11:36.287Z,62.30
2018-01-01T04:14:05.106Z,62.40
2018-01-01T04:16:32.841Z,60.80
2018-01-01T04:19:00.843Z,60.40
2018-01-01T04:21:30.445Z,60.80
2018-01-01T04:24:00.506Z,60.30
2018-01-01T04:26:31.274Z,60.50
2018-01-01T04:29:01.757Z,61.20
2018-01-01T04:31:29.547Z,60.00
2018-01-01T04:33:57.992Z,61.00
2018-01-01T04:36:26.767Z,61.10
2018-01-01T04:38:56.263Z,61.00
2018-01-01T04:41:24.330Z,61.10
2018-01-01T04:43:52.571Z,62.10
2018-01-01T04:46:21.483Z,62.10
2018-01-01T04:48:49.065Z,61.20
2018-01-01T04:51:17.347Z,60.90
2018-01-01T04:53:46.120Z,60.80
2018-01-01T04:56:13.722Z,61.00
2018-01-01T04:58:41.506Z,61.50
2018-01-01T05:01:09.140Z,62.30
2018-01-01T05:03:37.005Z,62.40
2018-01-01T05:06:05.608Z,63.10
2018-01-01T05:08:33.958Z,62.50
2018-01-01T05:11:01.955Z,61.90
2018-01-01T05:13:31.537Z,63.30
2018-01-01T05:15:59.400Z,63.80
2018-01-01T05:18:27.360Z,65.40
2018-01-01T05:20:54.949Z,67.00
2018-01-01T05:23:22.999Z,68.70
2018-01-01T05:25:50.899Z,68.50
2018-01-01T05:28:25.598Z,68.10
2018-01-01T05:30:57.318Z,68.20
2018-01-01T05:33:27.690Z,69.60
2018-01-01T05:36:06.568Z,69.90
2018-01-01T05:38:41.788Z,68.90
2018-01-01T05:41:11.626Z,68.30
2018-01-01T05:43:39.262Z,67.60
2018-01-01T05:46:06.873Z,67.20
2018-01-01T05:51:05.340Z,69.10
2018-01-01T05:53:38.207Z,74.10
2018-01-01T05:56:07.194Z,69.60
2018-01-01T05:58:38.739Z,68.20
2018-01-01T06:01:06.465Z,68.30
2018-01-01T06:03:34.831Z,68.60
2018-01-01T06:06:10.796Z,66.90
2018-01-01T06:08:41.615Z,66.80
2018-01-01T06:11:09.240Z,65.80
2018-01-01T06:13:52.106Z,65.00
2018-01-01T06:21:50.852Z,63.60
2018-01-01T06:24:18.521Z,62.50
2018-01-01T06:26:46.793Z,62.40
2018-01-01T06:29:14.667Z,61.90
2018-01-01T06:31:42.434Z,61.60
2018-01-01T06:34:11.826Z,61.10
2018-01-01T06:36:39.839Z,61.80
2018-01-01T06:39:11.670Z,61.10
2018-01-01T06:41:41.984Z,60.70
2018-01-01T06:44:11.126Z,61.30
2018-01-01T06:46:38.784Z,61.50
2018-01-01T06:49:06.358Z,61.50
2018-01-01T06:51:34.026Z,61.00
2018-01-01T06:54:02.424Z,61.60
2018-01-01T06:56:31.034Z,60.10
2018-01-01T06:58:58.585Z,59.20
2018-01-01T07:01:26.262Z,57.90
2018-01-01T07:03:53.884Z,57.60
2018-01-01T07:06:21.985Z,57.40
2018-01-01T07:08:49.605Z,57.90
2018-01-01T07:11:18.809Z,57.30
2018-01-01T07:13:46.360Z,56.60
2018-01-01T07:16:14.211Z,56.50
2018-01-01T07:18:43.159Z,56.60
2018-01-01T07:21:11.100Z,55.90
2018-01-01T07:23:39.234Z,56.10
2018-01-01T07:26:07.629Z,55.90
2018-01-01T07:28:35.917Z,55.50
2018-01-01T07:31:03.570Z,55.50
2018-01-01T07:33:31.356Z,55.30
2018-01-01T07:35:59.030Z,55.40
2018-01-01T07:38:26.650Z,55.10
2018-01-01T07:40:54.670Z,54.90
2018-01-01T07:43:22.611Z,54.40
2018-01-01T07:45:50.364Z,54.80
2018-01-01T07:48:18.382Z,54.40
2018-01-01T07:50:45.991Z,52.30
2018-01-01T07:53:13.669Z,52.80
2018-01-01T07:55:41.220Z,52.80
2018-01-01T07:58:10.081Z,52.70
2018-01-01T08:00:37.820Z,51.80
2018-01-01T08:03:05.490Z,51.50
2018-01-01T08:05:33.270Z,50.90
2018-01-01T08:08:01.628Z,49.60
2018-01-01T08:10:29.255Z,48.80
2018-01-01T08:12:56.862Z,49.20
2018-01-01T08:15:24.483Z,49.10
2018-01-01T08:17:52.360Z,49.30
2018-01-01T08:20:20.216Z,48.30
2018-01-01T08:22:48.206Z,48.30
2018-01-01T08:25:16.089Z,48.00
2018-01-01T08:27:44.424Z,48.40
2018-01-01T08:30:12.330Z,47.30
2018-01-01T08:32:41.181Z,47.90
2018-01-01T08:35:08.857Z,46.70
2018-01-01T08:37:38.010Z,47.90
2018-01-01T08:40:05.746Z,47.70
2018-01-01T08:42:34.271Z,47.70
2018-01-01T08:45:02.105Z,47.70
2018-01-01T08:47:31.084Z,47.50
2018-01-01T08:49:59.772Z,48.20
2018-01-01T08:52:27.862Z,47.50
2018-01-01T08:54:55.449Z,47.60
2018-01-01T08:57:23.148Z,48.20
2018-01-01T08:59:50.887Z,48.50
2018-01-01T09:02:19.236Z,47.60
2018-01-01T09:04:47.014Z,48.00
2018-01-01T09:07:15.647Z,47.80
2018-01-01T09:09:44.220Z,48.60
2018-01-01T09:12:12.530Z,48.20
2018-01-01T09:14:40.279Z,48.10
2018-01-01T09:17:07.910Z,47.80
2018-01-01T09:19:36.297Z,47.90
2018-01-01T09:22:04.690Z,47.70
2018-01-01T09:24:32.402Z,47.80
2018-01-01T09:27:00.222Z,47.60
2018-01-01T09:29:30.499Z,48.10
2018-01-01T09:31:58.393Z,47.70
2018-01-01T09:34:26.789Z,48.40
2018-01-01T09:36:54.361Z,47.30
2018-01-01T09:39:22.428Z,47.50
2018-01-01T09:41:51.123Z,47.40
2018-01-01T09:44:19.107Z,47.70
2018-01-01T09:46:46.919Z,47.60
2018-01-01T09:49:14.500Z,47.40
2018-01-01T09:51:42.372Z,47.80
2018-01-01T09:54:10.346Z,47.80
2018-01-01T09:56:40.181Z,48.60
2018-01-01T09:59:08.346Z,47.90
2018-01-01T10:01:36.036Z,47.60
2018-01-01T10:04:03.673Z,48.20
2018-01-01T10:06:31.318Z,46.20
2018-01-01T10:08:59.256Z,48.10
2018-01-01T10:11:27.877Z,47.90
2018-01-01T10:13:55.751Z,47.80
2018-01-01T10:16:23.462Z,47.90
2018-01-01T10:18:51.833Z,48.80
2018-01-01T10:21:20.200Z,47.80
2018-01-01T10:23:48.740Z,47.60
2018-01-01T10:26:17.195Z,47.80
2018-01-01T10:28:46.156Z,47.70
2018-01-01T10:31:14.273Z,47.90
2018-01-01T10:33:42.913Z,47.90
2018-01-01T10:36:10.918Z,48.00
2018-01-01T10:38:38.723Z,48.20
2018-01-01T10:41:06.343Z,47.90
2018-01-01T10:43:33.956Z,48.10
2018-01-01T10:46:02.457Z,48.70
2018-01-01T10:48:30.446Z,48.50
2018-01-01T10:50:58.744Z,48.60
2018-01-01T10:53:26.303Z,48.50
2018-01-01T10:55:55.344Z,49.30
2018-01-01T10:58:23.337Z,49.10
2018-01-01T11:00:51.334Z,50.00
2018-01-01T11:03:19.020Z,50.00
2018-01-01T11:05:49.516Z,50.10
2018-01-01T11:08:17.264Z,50.40
2018-01-01T11:10:45.008Z,50.10
2018-01-01T11:13:14.719Z,50.30
2018-01-01T11:15:42.394Z,50.60
2018-01-01T11:18:10.372Z,50.80
2018-01-01T11:20:40.224Z,50.70
2018-01-01T11:23:10.868Z,51.40
2018-01-01T11:25:42.440Z,50.40
2018-01-01T11:28:10.092Z,50.70
2018-01-01T11:30:39.962Z,51.90
2018-01-01T11:33:08.428Z,50.90
2018-01-01T11:35:36.273Z,51.70
2018-01-01T11:38:05.003Z,50.60
2018-01-01T11:40:33.200Z,51.20
2018-01-01T11:43:00.880Z,51.30
2018-01-01T11:45:30.593Z,50.50
2018-01-01T11:47:58.805Z,49.10
2018-01-01T11:50:26.737Z,49.10
2018-01-01T11:52:55.156Z,48.80
2018-01-01T11:55:23.068Z,48.00
2018-01-01T11:57:51.727Z,48.30
2018-01-01T12:00:19.659Z,48.50
2018-01-01T12:02:47.578Z,47.90
2018-01-01T12:05:15.561Z,48.00
2018-01-01T12:07:44.239Z,46.60
2018-01-01T12:10:12.577Z,46.50
2018-01-01T12:12:40.921Z,46.70
2018-01-01T12:15:09.390Z,46.00
2018-01-01T12:17:37.403Z,45.50
2018-01-01T12:20:05.302Z,45.80
2018-01-01T12:22:33.776Z,45.70
2018-01-01T12:25:01.641Z,44.50
2018-01-01T12:27:31.349Z,44.90
2018-01-01T12:30:00.481Z,44.10
2018-01-01T12:32:28.187Z,43.30
2018-01-01T12:34:55.975Z,43.60
2018-01-01T12:37:24.286Z,43.40
2018-01-01T12:39:52.609Z,61.80
2018-01-01T12:42:20.191Z,43.10
2018-01-01T12:44:49.050Z,43.30
2018-01-01T12:47:18.294Z,43.40
2018-01-01T12:49:45.955Z,43.20
2018-01-01T12:52:13.985Z,43.20
2018-01-01T12:54:42.559Z,43.70
2018-01-01T12:57:10.710Z,42.90
2018-01-01T12:59:40.952Z,42.90
2018-01-01T13:02:09.892Z,43.20
2018-01-01T13:04:40.592Z,42.00
2018-01-01T13:07:09.421Z,42.30
2018-01-01T13:09:37.292Z,42.50
2018-01-01T13:12:05.778Z,43.00
2018-01-01T13:14:34.662Z,42.80
2018-01-01T13:17:03.080Z,42.10
2018-01-01T13:19:32.220Z,43.00
2018-01-01T13:21:59.837Z,41.60
2018-01-01T13:24:29.598Z,41.90
2018-01-01T13:26:57.177Z,41.60
2018-01-01T13:29:25.756Z,41.70
2018-01-01T13:31:53.336Z,42.10
2018-01-01T13:34:22.317Z,41.90
2018-01-01T13:36:50.922Z,41.70
2018-01-01T13:39:19.893Z,41.60
2018-01-01T13:41:50.781Z,41.00
2018-01-01T13:44:20.253Z,40.70
2018-01-01T13:46:48.788Z,40.90
2018-01-01T13:49:17.672Z,40.40
2018-01-01T13:51:47.842Z,40.10
2018-01-01T13:54:17.038Z,41.40
2018-01-01T13:56:46.833Z,41.50
2018-01-01T13:59:14.928Z,40.60
2018-01-01T14:01:44.173Z,40.50
2018-01-01T14:04:12.245Z,40.10
2018-01-01T14:06:40.252Z,40.70
2018-01-01T14:09:09.148Z,40.60
2018-01-01T14:11:38.113Z,40.90
2018-01-01T14:14:06.351Z,40.50
2018-01-01T14:16:34.204Z,40.00
2018-01-01T14:19:02.181Z,39.30
2018-01-01T14:21:30.987Z,40.30
2018-01-01T14:23:58.922Z,39.80
2018-01-01T14:26:26.577Z,39.40
2018-01-01T14:28:54.217Z,39.70
2018-01-01T14:31:25.252Z,40.90
2018-01-01T14:33:54.080Z,40.30
2018-01-01T14:36:22.305Z,40.30
2018-01-01T14:38:51.038Z,41.10
2018-01-01T14:41:18.931Z,40.10
2018-01-01T14:43:48.918Z,40.10
2018-01-01T14:46:17.415Z,40.80
2018-01-01T14:48:45.145Z,40.60
2018-01-01T14:51:13.071Z,41.30
2018-01-01T14:53:41.677Z,40.90
2018-01-01T14:56:10.246Z,41.40
2018-01-01T14:58:40.776Z,40.90
2018-01-01T15:01:10.691Z,41.00
2018-01-01T15:03:38.333Z,41.10
2018-01-01T15:06:07.666Z,41.00
2018-01-01T15:08:37.659Z,42.10
2018-01-01T15:11:07.523Z,42.30
2018-01-01T15:13:35.378Z,42.50
2018-01-01T15:16:03.447Z,42.60
2018-01-01T15:18:31.920Z,43.50
2018-01-01T15:21:01.810Z,43.80
2018-01-01T15:23:31.635Z,44.10
2018-01-01T15:26:00.385Z,43.80
2018-01-01T15:28:28.126Z,43.20
2018-01-01T15:30:55.850Z,43.00
2018-01-01T15:33:24.912Z,43.50
2018-01-01T15:35:54.167Z,44.20
2018-01-01T15:38:22.072Z,44.70
2018-01-01T15:40:51.352Z,45.00
2018-01-01T15:43:20.098Z,45.80
2018-01-01T15:45:48.721Z,46.20
2018-01-01T15:48:16.742Z,47.10
2018-01-01T15:50:45.167Z,47.50
2018-01-01T15:53:13.433Z,47.30
2018-01-01T15:55:41.050Z,47.50
2018-01-01T15:58:09.586Z,48.30
2018-01-01T16:00:38.179Z,48.10
2018-01-01T16:03:07.126Z,48.30
2018-01-01T16:05:34.825Z,69.60
2018-01-01T16:08:02.665Z,49.10
2018-01-01T16:10:30.515Z,49.10
2018-01-01T16:12:58.346Z,49.70
2018-01-01T16:15:27.280Z,49.80
2018-01-01T16:17:55.085Z,50.00
2018-01-01T16:20:23.193Z,50.50
2018-01-01T16:22:50.856Z,51.00
2018-01-01T16:25:20.222Z,51.60
2018-01-01T16:28:05.971Z,51.20
2018-01-01T16:33:41.211Z,52.40
2018-01-01T16:36:10.146Z,52.30
2018-01-01T16:38:38.123Z,52.40
2018-01-01T16:41:06.729Z,52.20
2018-01-01T16:43:35.231Z,52.70
2018-01-01T16:46:03.267Z,52.60
2018-01-01T16:48:31.287Z,52.40
2018-01-01T16:50:59.387Z,52.60
2018-01-01T16:53:29.651Z,53.20
2018-01-01T16:58:51.106Z,53.70
2018-01-01T17:01:18.696Z,53.20
2018-01-01T17:03:46.350Z,53.30
2018-01-01T17:06:15.245Z,54.00
2018-01-01T17:08:42.933Z,53.30
2018-01-01T17:11:11.449Z,54.00
2018-01-01T17:13:39.927Z,54.10
2018-01-01T17:16:07.672Z,54.50
2018-01-01T17:18:37.049Z,54.60
2018-01-01T17:21:05.131Z,54.40
2018-01-01T17:23:33.517Z,55.00
2018-01-01T17:26:02.419Z,55.30
2018-01-01T17:28:30.209Z,54.60
2018-01-01T17:30:58.059Z,54.50
2018-01-01T17:33:25.699Z,54.80
2018-01-01T17:35:54.144Z,55.10
2018-01-01T17:38:22.581Z,54.90
2018-01-01T17:40:51.314Z,54.90
2018-01-01T17:43:20.591Z,55.70
2018-01-01T17:45:48.286Z,55.70
2018-01-01T17:48:16.384Z,55.90
2018-01-01T17:50:43.957Z,55.90
2018-01-01T17:53:11.683Z,55.90
2018-01-01T17:55:40.174Z,56.40
2018-01-01T17:58:08.698Z,56.80
2018-01-01T18:00:36.662Z,56.50
2018-01-01T18:03:04.613Z,56.70
2018-01-01T18:05:32.330Z,56.80
2018-01-01T18:07:59.920Z,57.10
2018-01-01T18:10:27.820Z,56.50
2018-01-01T18:12:56.286Z,56.60
2018-01-01T18:15:23.995Z,56.40
2018-01-01T18:17:52.603Z,56.90
2018-01-01T18:20:20.541Z,56.80
2018-01-01T18:22:48.166Z,57.30
2018-01-01T18:25:15.954Z,57.30
2018-01-01T18:27:43.692Z,57.20
2018-01-01T18:30:11.470Z,57.30
2018-01-01T18:32:39.072Z,57.20
2018-01-01T18:35:07.477Z,57.70
2018-01-01T18:37:35.186Z,57.50
2018-01-01T18:40:03.270Z,57.50
2018-01-01T18:42:32.011Z,57.40
2018-01-01T18:44:59.696Z,80.20
2018-01-01T18:47:27.413Z,57.40
2018-01-01T18:49:55.221Z,57.40
2018-01-01T18:52:22.947Z,58.10
2018-01-01T18:54:50.824Z,57.70
2018-01-01T18:57:18.491Z,58.00
2018-01-01T18:59:46.291Z,57.90
2018-01-01T19:02:13.951Z,58.50
2018-01-01T19:04:41.561Z,58.50
2018-01-01T19:07:09.276Z,58.90
2018-01-01T19:09:37.017Z,58.80
2018-01-01T19:12:04.808Z,58.70
2018-01-01T19:14:33.192Z,59.20
2018-01-01T19:17:02.181Z,58.40
2018-01-01T19:19:30.641Z,58.70
2018-01-01T19:21:58.260Z,58.00
2018-01-01T19:24:26.161Z,58.00
2018-01-01T19:26:53.842Z,57.80
2018-01-01T19:29:21.427Z,57.70
2018-01-01T19:31:49.859Z,56.80
2018-01-01T19:34:17.709Z,55.80
2018-01-01T19:36:45.616Z,54.20
2018-01-01T19:39:14.396Z,52.90
2018-01-01T19:41:42.914Z,52.20
2018-01-01T19:44:13.026Z,51.70
2018-01-01T19:46:42.773Z,51.10
2018-01-01T19:49:10.435Z,50.30
2018-01-01T19:51:38.403Z,50.10
2018-01-01T19:54:06.196Z,49.20
2018-01-01T19:56:34.773Z,48.50
2018-01-01T19:59:03.128Z,47.30
2018-01-01T20:01:31.603Z,47.50
2018-01-01T20:03:59.595Z,46.70
2018-01-01T20:06:28.469Z,47.90
2018-01-01T20:08:56.076Z,47.90
2018-01-01T20:11:23.821Z,48.30
2018-01-01T20:13:52.279Z,49.20
2018-01-01T20:16:20.150Z,48.90
2018-01-01T20:18:47.910Z,47.60
2018-01-01T20:21:16.004Z,48.00
2018-01-01T20:23:44.586Z,48.50
2018-01-01T20:26:13.140Z,48.50
2018-01-01T20:28:40.953Z,48.60
2018-01-01T20:31:08.801Z,49.00
2018-01-01T20:33:37.377Z,49.30
2018-01-01T20:36:05.998Z,49.70
2018-01-01T20:38:34.305Z,50.20
2018-01-01T20:41:02.089Z,50.60
2018-01-01T20:43:29.682Z,49.70
2018-01-01T20:45:57.774Z,49.70
2018-01-01T20:48:25.645Z,49.20
2018-01-01T20:50:53.369Z,50.80
2018-01-01T20:53:22.858Z,50.00
2018-01-01T20:55:51.016Z,50.80
2018-01-01T20:58:19.190Z,50.90
2018-01-01T21:00:48.350Z,51.90
2018-01-01T21:03:16.510Z,52.00
2018-01-01T21:05:45.750Z,52.30
2018-01-01T21:08:13.498Z,52.30
2018-01-01T21:10:41.184Z,51.90
2018-01-01T21:13:10.982Z,52.60
2018-01-01T21:15:38.643Z,52.10
2018-01-01T21:18:07.183Z,52.70
2018-01-01T21:20:35.184Z,51.80
2018-01-01T21:23:03.382Z,52.00
2018-01-01T21:25:33.625Z,52.20
2018-01-01T21:28:02.130Z,52.20
2018-01-01T21:30:29.845Z,52.20
2018-01-01T21:32:57.694Z,52.60
2018-01-01T21:35:27.539Z,53.10
2018-01-01T21:37:56.622Z,52.70
2018-01-01T21:40:26.037Z,52.20
2018-01-01T21:42:54.821Z,51.50
2018-01-01T21:45:23.489Z,51.30
2018-01-01T21:47:53.490Z,51.20
2018-01-01T21:50:21.258Z,50.30
2018-01-01T21:52:48.938Z,49.70
2018-01-01T21:55:18.202Z,49.40
2018-01-01T21:57:46.355Z,48.10
2018-01-01T22:00:15.125Z,48.00
2018-01-01T22:02:43.352Z,47.90
2018-01-01T22:05:11.556Z,48.30
2018-01-01T22:07:40.195Z,48.70
2018-01-01T22:10:08.556Z,47.70
2018-01-01T22:12:36.141Z,47.40
2018-01-01T22:15:03.759Z,47.50
2018-01-01T22:17:31.785Z,48.30
2018-01-01T22:19:59.479Z,48.80
2018-01-01T22:22:27.494Z,49.20
2018-01-01T22:24:55.514Z,49.30
2018-01-01T22:27:23.519Z,49.10
2018-01-01T22:29:51.507Z,48.30
2018-01-01T22:32:21.336Z,48.50
2018-01-01T22:34:50.540Z,49.50
2018-01-01T22:37:19.982Z,48.40
2018-01-01T22:39:48.463Z,49.40
2018-01-01T22:42:16.509Z,49.20
2018-01-01T22:44:44.388Z,49.10
2018-01-01T22:47:13.025Z,49.00
2018-01-01T22:49:47.771Z,49.10
2018-01-01T22:52:16.306Z,49.40
2018-01-01T22:54:45.108Z,49.20
2018-01-01T22:57:14.731Z,49.40
2018-01-01T22:59:45.120Z,50.30
2018-01-01T23:02:14.510Z,49.00
2018-01-01T23:04:46.134Z,48.30
2018-01-01T23:07:15.613Z,47.80
2018-01-01T23:09:45.899Z,48.90
2018-01-01T23:12:17.192Z,47.80
2018-01-01T23:14:45.344Z,47.20
2018-01-01T23:17:15.939Z,46.40
2018-01-01T23:19:45.441Z,46.80
2018-01-01T23:22:15.455Z,47.90
2018-01-01T23:24:45.647Z,49.30
2018-01-01T23:27:15.732Z,49.60
2018-01-01T23:29:44.562Z,49.90
2018-01-01T23:32:14.593Z,50.10
2018-01-01T23:34:42.762Z,49.50
2018-01-01T23:37:11.980Z,49.60
2018-01-01T23:39:41.782Z,49.40
2018-01-01T23:42:10.892Z,50.30
2018-01-01T23:44:39.947Z,50.90
2018-01-01T23:47:08.008Z,51.40
2018-01-01T23:49:42.631Z,52.20
2018-01-01T23:52:11.312Z,53.00
2018-01-01T23:54:41.801Z,52.90
2018-01-01T23:57:10.591Z,53.80
2018-01-01T23:59:42.176Z,53.80
